Time;durP1;ratioP1;P1;durP2;ratioP2;P2;SDS_P1;SDS_P2;PMS_P1;PMS_P2;Temp;Humidity;BMP_temperature;BMP_pressure;BME280_temperature;BME280_humidity;BME280_pressure;Samples;Min_cycle;Max_cycle;Signal;HPM_P1;HPM_P2
2022/07/17 00:02:07;;;;;;;4.2;3.8;;;;;;;16;69.74023;945.7623;;;;
2022/07/17 00:04:35;;;;;;;5.5;4.2;;;;;;;15.97;68.91602;945.8201;;;;
2022/07/17 00:07:00;;;;;;;6.8;4.4;;;;;;;16.02;68.99316;945.8173;;;;
2022/07/17 00:09:26;;;;;;;5.5;4.4;;;;;;;16.03;69.48047;945.7756;;;;
2022/07/17 00:11:51;;;;;;;6.5;4.5;;;;;;;16.03;69.43457;945.6904;;;;
2022/07/17 00:14:18;;;;;;;5.3;4.1;;;;;;;16;69.74219;945.6202;;;;
2022/07/17 00:16:43;;;;;;;5.3;3.9;;;;;;;16.04;68.77539;945.6969;;;;
2022/07/17 00:19:09;;;;;;;4.6;3.7;;;;;;;15.98;68.90527;945.6588;;;;
2022/07/17 00:21:34;;;;;;;4.1;3.6;;;;;;;15.77;69.18457;945.6238;;;;
2022/07/17 00:24:01;;;;;;;5.8;3.1;;;;;;;15.7;69.30176;945.606;;;;
2022/07/17 00:26:26;;;;;;;5.2;3.7;;;;;;;15.71;69.40625;945.6116;;;;
2022/07/17 00:28:53;;;;;;;4.1;3.6;;;;;;;15.76;69.16016;945.5803;;;;
2022/07/17 00:31:18;;;;;;;4;3.4;;;;;;;15.72;69.82324;945.6606;;;;
2022/07/17 00:33:44;;;;;;;6.3;3.5;;;;;;;15.6;70.30078;945.6489;;;;
2022/07/17 00:36:09;;;;;;;6.4;3.9;;;;;;;15.56;70.49219;945.6838;;;;
2022/07/17 00:38:37;;;;;;;4.8;4.1;;;;;;;15.56;71.16016;945.675;;;;
2022/07/17 00:41:02;;;;;;;6.2;3.7;;;;;;;15.56;70.74414;945.6677;;;;
2022/07/17 00:43:28;;;;;;;4.7;3.8;;;;;;;15.53;70.24316;945.6364;;;;
2022/07/17 00:45:53;;;;;;;3.9;3.4;;;;;;;15.52;69.89648;945.7287;;;;
2022/07/17 00:48:19;;;;;;;5.7;3.6;;;;;;;15.5;69.84668;945.6732;;;;
2022/07/17 00:50:44;;;;;;;4.4;3.4;;;;;;;15.41;70.10938;945.6799;;;;
2022/07/17 00:53:12;;;;;;;4.2;3.3;;;;;;;15.28;70.67773;945.6651;;;;
2022/07/17 00:55:36;;;;;;;4.2;3.3;;;;;;;15.32;70.9375;945.7455;;;;
2022/07/17 00:58:01;;;;;;;4;3.4;;;;;;;15.41;70.44434;945.7618;;;;
2022/07/17 01:00:27;;;;;;;4.5;3.5;;;;;;;15.45;70.05859;945.7686;;;;
2022/07/17 01:02:56;;;;;;;4.2;3.4;;;;;;;15.4;70.11914;945.7521;;;;
2022/07/17 01:05:21;;;;;;;4.5;3.7;;;;;;;15.27;70.45703;945.7525;;;;
2022/07/17 01:07:48;;;;;;;5;3.6;;;;;;;15.26;70.7666;945.7693;;;;
2022/07/17 01:10:14;;;;;;;5.4;3.8;;;;;;;15.29;70.65625;945.743;;;;
2022/07/17 01:12:40;;;;;;;4.8;3.4;;;;;;;15.28;70.67578;945.7935;;;;
2022/07/17 01:15:05;;;;;;;5;3.4;;;;;;;15.24;71.32813;945.8262;;;;
2022/07/17 01:17:31;;;;;;;4.1;3.4;;;;;;;15.19;70.55859;945.7672;;;;
2022/07/17 01:19:56;;;;;;;4.7;3.4;;;;;;;15.17;71.70898;945.8064;;;;
2022/07/17 01:22:25;;;;;;;4.2;3.2;;;;;;;15.11;72.18457;945.7966;;;;
2022/07/17 01:24:49;;;;;;;4.3;3.2;;;;;;;15.11;71.00586;945.7628;;;;
2022/07/17 01:27:16;;;;;;;3.3;3;;;;;;;14.94;70.31055;945.8564;;;;
2022/07/17 01:29:41;;;;;;;4.7;3.4;;;;;;;14.75;71.25;945.844;;;;
2022/07/17 01:32:07;;;;;;;4.8;3.6;;;;;;;14.79;71.84277;945.8273;;;;
2022/07/17 01:34:32;;;;;;;5;3.3;;;;;;;14.8;72.59473;945.8081;;;;
2022/07/17 01:36:59;;;;;;;4.8;3.4;;;;;;;14.83;71.79199;945.7869;;;;
2022/07/17 01:39:52;;;;;;;4.4;3.4;;;;;;;14.86;71.56641;945.7743;;;;
2022/07/17 01:41:49;;;;;;;3.9;3.4;;;;;;;14.82;71.41992;945.7837;;;;
2022/07/17 01:44:14;;;;;;;4.9;3.4;;;;;;;14.84;71.58594;945.8576;;;;
2022/07/17 01:46:39;;;;;;;4.2;3.3;;;;;;;14.87;71.56641;945.7903;;;;
2022/07/17 01:49:06;;;;;;;3.9;3.3;;;;;;;14.81;71.52441;945.7858;;;;
2022/07/17 01:51:31;;;;;;;4.6;3;;;;;;;14.76;71.5957;945.8152;;;;
2022/07/17 01:53:56;;;;;;;5.1;3.4;;;;;;;14.74;71.78906;945.7661;;;;
2022/07/17 01:56:23;;;;;;;6;3.3;;;;;;;14.65;71.94727;945.7296;;;;
2022/07/17 01:58:48;;;;;;;4.3;3.4;;;;;;;14.57;72.37109;945.712;;;;
2022/07/17 02:01:13;;;;;;;3.4;3.1;;;;;;;14.54;72.07715;945.7062;;;;
2022/07/17 02:03:41;;;;;;;4.4;3.3;;;;;;;14.48;72.20703;945.7162;;;;
2022/07/17 02:06:06;;;;;;;5.3;3.3;;;;;;;14.35;72.53125;945.7131;;;;
2022/07/17 02:08:34;;;;;;;6.3;3.3;;;;;;;14.18;73.35449;945.6652;;;;
2022/07/17 02:10:59;;;;;;;4.2;3.3;;;;;;;14.17;73.53711;945.6587;;;;
2022/07/17 02:13:25;;;;;;;3.8;3.4;;;;;;;14.07;74.18848;945.5931;;;;
2022/07/17 02:15:59;;;;;;;4.4;3.4;;;;;;;14.15;74.01855;945.6754;;;;
2022/07/17 02:18:25;;;;;;;5;3.2;;;;;;;14.22;74.53711;945.7756;;;;
2022/07/17 02:20:52;;;;;;;3.3;3;;;;;;;14.28;73.63672;945.7495;;;;
2022/07/17 02:23:17;;;;;;;4.9;3.1;;;;;;;14.33;73.32129;945.7539;;;;
2022/07/17 02:25:44;;;;;;;7.6;3.5;;;;;;;14.41;73.21973;945.663;;;;
2022/07/17 02:28:09;;;;;;;5.7;3.1;;;;;;;14.35;73.40723;945.7308;;;;
2022/07/17 02:30:37;;;;;;;6.4;3.3;;;;;;;14.41;73.23145;945.728;;;;
2022/07/17 02:33:02;;;;;;;3.4;2.8;;;;;;;14.41;72.90918;945.6703;;;;
2022/07/17 02:35:30;;;;;;;4.5;3.5;;;;;;;14.29;72.92383;945.7184;;;;
2022/07/17 02:37:55;;;;;;;4.1;3.1;;;;;;;14.23;73.01855;945.7316;;;;
2022/07/17 02:40:22;;;;;;;3.7;3.2;;;;;;;14.18;73.125;945.7053;;;;
2022/07/17 02:42:48;;;;;;;3.9;2.8;;;;;;;14.18;73.19336;945.7317;;;;
2022/07/17 02:45:24;;;;;;;3.9;3.3;;;;;;;14.2;73.02441;945.7094;;;;
2022/07/17 02:47:47;;;;;;;4.6;3.1;;;;;;;14.15;73.22363;945.6489;;;;
2022/07/17 02:50:18;;;;;;;3.2;2.9;;;;;;;14.18;73.11133;945.6443;;;;
2022/07/17 02:52:46;;;;;;;3.2;2.9;;;;;;;14.21;73.44043;945.723;;;;
2022/07/17 02:55:11;;;;;;;4.8;3.1;;;;;;;14.28;73.3252;945.7839;;;;
2022/07/17 02:57:41;;;;;;;3.2;2.8;;;;;;;14.27;73.20996;945.7239;;;;
2022/07/17 03:00:16;;;;;;;3.7;3;;;;;;;14.22;73.44336;945.7571;;;;
2022/07/17 03:02:45;;;;;;;3.1;2.8;;;;;;;14.22;73.12109;945.7388;;;;
2022/07/17 03:05:19;;;;;;;5;3.3;;;;;;;14.18;73.125;945.6844;;;;
2022/07/17 03:07:49;;;;;;;4.1;3.1;;;;;;;14.09;73.33984;945.6373;;;;
2022/07/17 03:10:21;;;;;;;3.7;2.8;;;;;;;14.02;74.19043;945.6487;;;;
2022/07/17 03:12:51;;;;;;;5.2;3.2;;;;;;;13.98;73.82813;945.5993;;;;
2022/07/17 03:15:16;;;;;;;4.7;3.4;;;;;;;13.98;74.19434;945.6329;;;;
2022/07/17 03:17:47;;;;;;;3.7;3.2;;;;;;;13.97;73.76855;945.7001;;;;
2022/07/17 03:20:14;;;;;;;4.8;3.3;;;;;;;13.95;74.13281;945.6688;;;;
2022/07/17 03:22:49;;;;;;;4.2;3.4;;;;;;;13.99;73.83105;945.657;;;;
2022/07/17 03:25:16;;;;;;;5;3.2;;;;;;;13.9;73.98535;945.5497;;;;
2022/07/17 03:27:48;;;;;;;3.9;3.2;;;;;;;13.86;74.12988;945.7008;;;;
2022/07/17 03:30:18;;;;;;;3.9;3.5;;;;;;;13.81;74.24609;945.6808;;;;
2022/07/17 03:32:48;;;;;;;4.8;3.5;;;;;;;13.77;74.50391;945.7108;;;;
2022/07/17 03:35:20;;;;;;;5;3.5;;;;;;;13.73;74.49805;945.7089;;;;
2022/07/17 03:37:51;;;;;;;4.8;3.1;;;;;;;13.86;74.2666;945.7328;;;;
2022/07/17 03:40:26;;;;;;;4;3.4;;;;;;;13.87;73.90039;945.7656;;;;
2022/07/17 03:42:58;;;;;;;5.9;3.3;;;;;;;13.85;73.93164;945.788;;;;
2022/07/17 03:45:31;;;;;;;3.8;3.4;;;;;;;13.88;74.58008;945.7881;;;;
2022/07/17 03:48:03;;;;;;;4.3;3.2;;;;;;;13.78;74.09375;945.791;;;;
2022/07/17 03:50:34;;;;;;;4.8;3.4;;;;;;;13.59;74.95605;945.7833;;;;
2022/07/17 03:53:04;;;;;;;5;3.5;;;;;;;13.54;75.20117;945.8309;;;;
2022/07/17 03:55:37;;;;;;;3.3;3;;;;;;;13.57;75.09082;945.8239;;;;
2022/07/17 03:58:07;;;;;;;3.9;3.5;;;;;;;13.55;75.38672;945.8701;;;;
2022/07/17 04:02:41;;;;;;;4.3;3.2;;;;;;;13.58;75.4375;945.8144;;;;
2022/07/17 04:05:15;;;;;;;3.4;3.1;;;;;;;13.62;75.12402;945.8215;;;;
2022/07/17 04:07:47;;;;;;;4.1;3.1;;;;;;;13.52;75.74902;945.8218;;;;
2022/07/17 04:10:18;;;;;;;4.4;3.3;;;;;;;13.61;75.63965;945.8508;;;;
2022/07/17 04:12:49;;;;;;;5.3;3.1;;;;;;;13.71;75.51855;945.8344;;;;
2022/07/17 04:15:48;;;;;;;4.3;3.1;;;;;;;13.63;75.01172;945.7656;;;;
2022/07/17 04:17:43;;;;;;;3.8;3;;;;;;;13.47;75.31348;945.8309;;;;
2022/07/17 04:20:16;;;;;;;3.7;3.1;;;;;;;13.14;76.89063;945.84;;;;
2022/07/17 04:22:47;;;;;;;4;3;;;;;;;13.11;77.44629;945.8092;;;;
2022/07/17 04:25:15;;;;;;;3.8;3.3;;;;;;;12.93;78.26563;945.8708;;;;
2022/07/17 04:27:46;;;;;;;7.8;4.3;;;;;;;13.05;77.93066;945.8653;;;;
2022/07/17 04:30:19;;;;;;;4.8;4.1;;;;;;;13.21;77.37207;945.7955;;;;
2022/07/17 04:32:50;;;;;;;5.8;3.6;;;;;;;13.34;76.85449;945.7957;;;;
2022/07/17 04:35:23;;;;;;;6;3.6;;;;;;;13.53;76.18848;945.8451;;;;
2022/07/17 04:37:56;;;;;;;5.6;4.4;;;;;;;13.65;75.82813;945.853;;;;
2022/07/17 04:40:32;;;;;;;4.6;3.9;;;;;;;13.68;75.52539;945.7861;;;;
2022/07/17 04:42:57;;;;;;;3.6;3.3;;;;;;;13.72;75.35938;945.7385;;;;
2022/07/17 04:45:24;;;;;;;4.5;3.3;;;;;;;13.68;75.6748;945.6797;;;;
2022/07/17 04:47:49;;;;;;;4.4;3;;;;;;;13.53;75.75293;945.6899;;;;
2022/07/17 04:50:14;;;;;;;4.1;3.3;;;;;;;13.49;76.31836;945.6431;;;;
2022/07/17 04:52:39;;;;;;;4.5;3.4;;;;;;;13.47;76.28223;945.5517;;;;
2022/07/17 04:55:12;;;;;;;3.9;3.3;;;;;;;13.34;76.94824;945.6797;;;;
2022/07/17 04:57:44;;;;;;;6.6;3.5;;;;;;;13.14;77.77441;945.6968;;;;
2022/07/17 05:00:17;;;;;;;4.2;3.3;;;;;;;13.19;77.88477;945.688;;;;
2022/07/17 05:02:48;;;;;;;4.9;3.9;;;;;;;13.35;77.44238;945.6741;;;;
2022/07/17 05:05:21;;;;;;;3.8;3.4;;;;;;;13.52;76.84082;945.6417;;;;
2022/07/17 05:07:53;;;;;;;3.3;3;;;;;;;13.72;75.92285;945.6303;;;;
2022/07/17 05:10:17;;;;;;;4.9;3.7;;;;;;;13.84;75.56543;945.6599;;;;
2022/07/17 05:12:45;;;;;;;4.4;3.4;;;;;;;14.07;75.61426;945.6387;;;;
2022/07/17 05:15:10;;;;;;;4.5;2.9;;;;;;;14.6;73.41504;945.6144;;;;
2022/07/17 05:17:38;;;;;;;4.5;3.3;;;;;;;16.21;67.77441;945.5433;;;;
2022/07/17 05:20:08;;;;;;;3.8;2.4;;;;;;;17.43;62.9502;945.485;;;;
2022/07/17 05:22:38;;;;;;;5.2;2.5;;;;;;;18.92;58.70703;945.447;;;;
2022/07/17 05:25:03;;;;;;;3.4;2.6;;;;;;;19.8;55.03516;945.4478;;;;
2022/07/17 05:27:29;;;;;;;3.6;2.7;;;;;;;20.52;52.0752;945.3931;;;;
2022/07/17 05:29:54;;;;;;;3.9;2.5;;;;;;;20.28;53.5293;945.4113;;;;
2022/07/17 05:32:19;;;;;;;2.9;2.1;;;;;;;21.32;49.60645;945.3883;;;;
2022/07/17 05:34:45;;;;;;;2.9;2.4;;;;;;;22.43;47.32617;945.4445;;;;
2022/07/17 05:37:10;;;;;;;2.3;2.1;;;;;;;22.46;45.80273;945.4041;;;;
2022/07/17 05:39:39;;;;;;;2.8;2.1;;;;;;;22.3;45.82227;945.3583;;;;
2022/07/17 05:42:04;;;;;;;3.3;2.2;;;;;;;22.07;46.4668;945.3342;;;;
2022/07/17 05:44:34;;;;;;;2.4;2;;;;;;;23.08;45.03223;945.3769;;;;
2022/07/17 05:46:59;;;;;;;2.3;2;;;;;;;23.21;45.66895;945.374;;;;
2022/07/17 05:49:29;;;;;;;3.1;2;;;;;;;23;44.36719;945.342;;;;
2022/07/17 05:51:58;;;;;;;3.6;1.9;;;;;;;24.05;42.6582;945.262;;;;
2022/07/17 05:54:23;;;;;;;3.6;2.6;;;;;;;24.72;41.27246;945.2805;;;;
2022/07/17 05:56:51;;;;;;;3;2.1;;;;;;;24.12;41.73535;945.3167;;;;
2022/07/17 05:59:16;;;;;;;2.7;2.2;;;;;;;24.6;40.76563;945.3159;;;;
2022/07/17 06:01:45;;;;;;;1.9;1.8;;;;;;;25.14;39.94238;945.2843;;;;
2022/07/17 06:04:10;;;;;;;2.4;1.9;;;;;;;25.58;41.49414;945.312;;;;
2022/07/17 06:06:36;;;;;;;2;1.8;;;;;;;26.53;37.10547;945.2989;;;;
2022/07/17 06:09:01;;;;;;;2;1.7;;;;;;;25.77;38.7334;945.2606;;;;
2022/07/17 06:11:29;;;;;;;3;2.2;;;;;;;25.45;39.36719;945.2257;;;;
2022/07/17 06:13:54;;;;;;;2.7;1.9;;;;;;;26.95;37.78125;945.288;;;;
2022/07/17 06:16:24;;;;;;;2.6;2;;;;;;;27.48;36.72168;945.2678;;;;
2022/07/17 06:18:52;;;;;;;3.9;2.2;;;;;;;28.17;35.11426;945.221;;;;
2022/07/17 06:21:17;;;;;;;2;1.8;;;;;;;28.34;34.91406;945.2424;;;;
2022/07/17 06:23:44;;;;;;;6.7;2;;;;;;;28.02;34.61523;945.2231;;;;
2022/07/17 06:26:09;;;;;;;4;1.8;;;;;;;28.46;34.38867;945.216;;;;
2022/07/17 06:28:37;;;;;;;3.3;1.6;;;;;;;28.95;33.9248;945.1902;;;;
2022/07/17 06:31:02;;;;;;;2.6;1.8;;;;;;;28.85;34.3584;945.1955;;;;
2022/07/17 06:33:30;;;;;;;2.9;1.8;;;;;;;28.86;33.56152;945.1537;;;;
2022/07/17 06:35:55;;;;;;;3.1;1.8;;;;;;;28.87;34.08594;945.1894;;;;
2022/07/17 06:38:22;;;;;;;2.1;1.9;;;;;;;29.4;34.05469;945.1813;;;;
2022/07/17 06:40:47;;;;;;;3;2.2;;;;;;;29.86;35.44922;945.2086;;;;
2022/07/17 06:43:16;;;;;;;2.6;1.9;;;;;;;30.36;35.29688;945.1602;;;;
2022/07/17 06:45:51;;;;;;;2.2;2;;;;;;;29.22;36.32813;945.236;;;;
2022/07/17 06:48:13;;;;;;;2.2;1.9;;;;;;;30.28;34.70605;945.176;;;;
2022/07/17 06:50:45;;;;;;;2;1.9;;;;;;;30.79;33.88477;945.2087;;;;
2022/07/17 06:53:14;;;;;;;2.2;1.9;;;;;;;29.27;36.33203;945.1607;;;;
2022/07/17 06:55:39;;;;;;;2.3;1.9;;;;;;;29.2;37.93457;945.1904;;;;
2022/07/17 06:58:06;;;;;;;2;1.9;;;;;;;30.18;34.65039;945.175;;;;
2022/07/17 07:00:31;;;;;;;2;1.8;;;;;;;30.06;33.73535;945.1511;;;;
2022/07/17 07:02:58;;;;;;;2.2;2;;;;;;;30.17;36.26074;945.2068;;;;
2022/07/17 07:05:23;;;;;;;2.3;2;;;;;;;29.1;38.1875;945.1877;;;;
2022/07/17 07:07:51;;;;;;;2.3;1.8;;;;;;;29.05;37.43359;945.2367;;;;
2022/07/17 07:10:16;;;;;;;2.7;2.1;;;;;;;29.41;36.83203;945.2151;;;;
2022/07/17 07:12:42;;;;;;;2.1;2;;;;;;;29.08;38.11523;945.2223;;;;
2022/07/17 07:15:08;;;;;;;2.4;2;;;;;;;29.64;35.24121;945.1727;;;;
2022/07/17 07:17:33;;;;;;;1.8;1.7;;;;;;;29.54;36.0791;945.1998;;;;
2022/07/17 07:20:00;;;;;;;3.7;2.3;;;;;;;28.29;37.2041;945.1995;;;;
2022/07/17 07:22:25;;;;;;;2.9;2;;;;;;;28.91;38.81445;945.2214;;;;
2022/07/17 07:24:52;;;;;;;3.1;1.7;;;;;;;30.98;34.75977;945.2908;;;;
2022/07/17 07:27:17;;;;;;;1.8;1.7;;;;;;;31.9;31.27148;945.2795;;;;
2022/07/17 07:29:42;;;;;;;2.4;1.8;;;;;;;31.6;33.14355;945.2924;;;;
2022/07/17 07:32:07;;;;;;;1.9;1.7;;;;;;;29.71;36.40332;945.2473;;;;
2022/07/17 07:34:36;;;;;;;2.1;1.7;;;;;;;30.83;33.05078;945.3033;;;;
2022/07/17 07:37:00;;;;;;;2.7;1.8;;;;;;;32.89;29.71875;945.2238;;;;
2022/07/17 07:39:27;;;;;;;1.9;1.7;;;;;;;31.99;32.5127;945.2935;;;;
2022/07/17 07:41:52;;;;;;;1.4;1.3;;;;;;;32.25;30.80469;945.2849;;;;
2022/07/17 07:44:20;;;;;;;2.2;1.7;;;;;;;32.01;30.0332;945.3017;;;;
2022/07/17 07:46:46;;;;;;;2.6;1.7;;;;;;;33.32;28.37695;945.2169;;;;
2022/07/17 07:49:10;;;;;;;2.6;1.8;;;;;;;30.54;32.46777;945.2659;;;;
2022/07/17 07:51:37;;;;;;;2.2;1.7;;;;;;;30.79;34.12402;945.2528;;;;
2022/07/17 07:54:02;;;;;;;2.4;1.8;;;;;;;29.88;34.18652;945.2516;;;;
2022/07/17 07:56:30;;;;;;;3;1.8;;;;;;;31.39;30.99805;945.1876;;;;
2022/07/17 07:58:55;;;;;;;2.1;1.6;;;;;;;31.24;34.02637;945.2321;;;;
2022/07/17 08:01:21;;;;;;;2.1;1.9;;;;;;;31.87;31.72461;945.1924;;;;
2022/07/17 08:03:47;;;;;;;2.5;1.7;;;;;;;32.03;32.50391;945.2181;;;;
2022/07/17 08:06:14;;;;;;;1.7;1.6;;;;;;;31.68;31.89063;945.2012;;;;
2022/07/17 08:08:38;;;;;;;1.8;1.6;;;;;;;29.91;34.55859;945.1589;;;;
2022/07/17 08:11:08;;;;;;;2.3;1.8;;;;;;;30.39;34.02246;945.1515;;;;
2022/07/17 08:13:30;;;;;;;1.8;1.7;;;;;;;32.55;30.04395;945.1227;;;;
2022/07/17 08:16:02;;;;;;;3.1;1.7;;;;;;;31.14;33.89941;945.23;;;;
2022/07/17 08:18:29;;;;;;;4.3;1.7;;;;;;;31.64;31.48145;945.2347;;;;
2022/07/17 08:20:54;;;;;;;1.7;1.6;;;;;;;31.54;32.94727;945.1564;;;;
2022/07/17 08:23:21;;;;;;;2;1.8;;;;;;;31.47;33.50488;945.1164;;;;
2022/07/17 08:25:47;;;;;;;2.2;1.6;;;;;;;31.63;32.34375;945.2001;;;;
2022/07/17 08:28:13;;;;;;;2.9;1.8;;;;;;;32.5;30.62988;945.1742;;;;
2022/07/17 08:30:38;;;;;;;8.1;1.9;;;;;;;32.53;29.4082;945.2092;;;;
2022/07/17 08:33:05;;;;;;;2.4;1.8;;;;;;;31.35;32.75391;945.248;;;;
2022/07/17 08:35:34;;;;;;;2.5;1.5;;;;;;;31.51;32.16602;945.2634;;;;
2022/07/17 08:37:55;;;;;;;2;1.6;;;;;;;32.77;30.70801;945.2745;;;;
2022/07/17 08:40:23;;;;;;;2.2;1.6;;;;;;;32.47;31.63477;945.3042;;;;
2022/07/17 08:42:48;;;;;;;3.1;1.7;;;;;;;33.29;30.0459;945.284;;;;
2022/07/17 08:45:17;;;;;;;2.6;1.7;;;;;;;31.9;32.66211;945.321;;;;
2022/07/17 08:47:43;;;;;;;2.6;1.7;;;;;;;33.53;28.97949;945.3002;;;;
2022/07/17 08:50:14;;;;;;;2.9;1.6;;;;;;;32.8;30.67285;945.3055;;;;
2022/07/17 08:52:42;;;;;;;3.5;1.8;;;;;;;32.42;31.7998;945.3428;;;;
2022/07/17 08:55:06;;;;;;;2.6;1.7;;;;;;;33.72;30.02637;945.3348;;;;
2022/07/17 08:57:34;;;;;;;2;1.8;;;;;;;31.9;31.55957;945.3065;;;;
2022/07/17 08:59:59;;;;;;;1.8;1.5;;;;;;;31.09;33.06934;945.313;;;;
2022/07/17 09:02:32;;;;;;;2.2;1.5;;;;;;;32.3;30.9043;945.332;;;;
2022/07/17 09:04:59;;;;;;;2;1.6;;;;;;;32.49;31.3125;945.3052;;;;
2022/07/17 09:07:24;;;;;;;2.3;1.7;;;;;;;34.27;27.49609;945.3204;;;;
2022/07/17 09:09:49;;;;;;;2.8;1.6;;;;;;;32.67;30.0166;945.3209;;;;
2022/07/17 09:12:15;;;;;;;2.2;1.5;;;;;;;32.23;31.11523;945.2825;;;;
2022/07/17 09:14:40;;;;;;;2.2;1.9;;;;;;;32.14;33.02734;945.3253;;;;
2022/07/17 09:17:08;;;;;;;2.2;1.8;;;;;;;32.17;30.95508;945.2581;;;;
2022/07/17 09:19:33;;;;;;;2.8;2;;;;;;;32.72;31.25684;945.2723;;;;
2022/07/17 09:21:59;;;;;;;3.7;1.5;;;;;;;33.58;28.74219;945.2751;;;;
2022/07/17 09:24:27;;;;;;;2.7;1.8;;;;;;;32.13;31.95898;945.2983;;;;
2022/07/17 09:26:53;;;;;;;2;1.7;;;;;;;32.78;30.09668;945.3425;;;;
2022/07/17 09:29:18;;;;;;;2.7;1.8;;;;;;;33.35;28.57031;945.2795;;;;
2022/07/17 09:31:44;;;;;;;2.4;1.8;;;;;;;32.31;30.3291;945.2185;;;;
2022/07/17 09:34:09;;;;;;;3.4;1.6;;;;;;;33.13;30.03516;945.2561;;;;
2022/07/17 09:36:38;;;;;;;2.2;1.6;;;;;;;32.14;33.32617;945.3214;;;;
2022/07/17 09:39:05;;;;;;;2.7;1.7;;;;;;;32.32;31.01367;945.3356;;;;
2022/07/17 09:41:33;;;;;;;3;1.7;;;;;;;31.93;32.41211;945.2772;;;;
2022/07/17 09:43:53;;;;;;;2.6;1.5;;;;;;;30.93;34.18262;945.3214;;;;
2022/07/17 09:46:20;;;;;;;1.6;1.5;;;;;;;32.26;32.30371;945.2977;;;;
2022/07/17 09:48:47;;;;;;;1.9;1.7;;;;;;;31.28;33.61035;945.2842;;;;
2022/07/17 09:51:15;;;;;;;2.1;1.6;;;;;;;30.66;35.59473;945.3082;;;;
2022/07/17 09:53:40;;;;;;;3.3;1.8;;;;;;;30.72;33.7002;945.2773;;;;
2022/07/17 09:56:07;;;;;;;1.9;1.8;;;;;;;31.93;32.14941;945.3059;;;;
2022/07/17 09:58:32;;;;;;;3;1.8;;;;;;;31.58;32.01563;945.3331;;;;
2022/07/17 10:00:59;;;;;;;3;1.8;;;;;;;32.25;31.32031;945.3226;;;;
2022/07/17 10:03:24;;;;;;;1.8;1.7;;;;;;;32.27;32.25684;945.3514;;;;
2022/07/17 10:05:50;;;;;;;7.8;1.8;;;;;;;32.91;32.01367;945.3181;;;;
2022/07/17 10:08:15;;;;;;;3.8;1.7;;;;;;;32.52;30.00684;945.2277;;;;
2022/07/17 10:10:43;;;;;;;2.8;1.5;;;;;;;32.41;30.6709;945.322;;;;
2022/07/17 10:13:08;;;;;;;2.1;1.7;;;;;;;32.37;30.20117;945.2726;;;;
2022/07/17 10:15:41;;;;;;;2.3;1.7;;;;;;;32.33;31.05078;945.2706;;;;
2022/07/17 10:18:07;;;;;;;2.5;2;;;;;;;31.12;34.59082;945.2397;;;;
2022/07/17 10:20:32;;;;;;;3.4;1.6;;;;;;;30.32;37.38477;945.2371;;;;
2022/07/17 10:23:00;;;;;;;2.7;1.8;;;;;;;30.33;34.14844;945.2151;;;;
2022/07/17 10:25:26;;;;;;;2.6;1.8;;;;;;;29.58;39.02734;945.1789;;;;
2022/07/17 10:27:51;;;;;;;2.9;1.8;;;;;;;29.2;37.92188;945.1923;;;;
2022/07/17 10:30:19;;;;;;;3;1.9;;;;;;;29.13;38.59473;945.2062;;;;
2022/07/17 10:32:45;;;;;;;3.8;1.9;;;;;;;29.36;37.68555;945.1479;;;;
2022/07/17 10:35:16;;;;;;;3.1;1.9;;;;;;;29.74;37.47852;945.1553;;;;
2022/07/17 10:37:44;;;;;;;2.6;1.9;;;;;;;30.2;35.01074;945.1328;;;;
2022/07/17 10:40:13;;;;;;;2.8;2.2;;;;;;;30.62;33.4541;945.1175;;;;
2022/07/17 10:42:46;;;;;;;1.9;1.7;;;;;;;31.05;35.67383;945.1067;;;;
2022/07/17 10:45:15;;;;;;;2.2;1.7;;;;;;;31.33;33.64941;945.1142;;;;
2022/07/17 10:47:44;;;;;;;2.6;2;;;;;;;30.44;36.47363;945.1124;;;;
2022/07/17 10:50:20;;;;;;;4.4;2.2;;;;;;;30.12;36.85449;945.1615;;;;
2022/07/17 10:52:50;;;;;;;2.3;2.1;;;;;;;29.82;36.18457;945.1226;;;;
2022/07/17 10:55:15;;;;;;;2.7;2;;;;;;;30.08;35.99121;945.0786;;;;
2022/07/17 10:57:40;;;;;;;2.2;1.9;;;;;;;30.19;36.19141;945.0887;;;;
2022/07/17 11:00:05;;;;;;;2.7;2;;;;;;;29.89;37.4082;945.0349;;;;
2022/07/17 11:02:33;;;;;;;2.7;1.9;;;;;;;29.87;36.88086;945.0307;;;;
2022/07/17 11:05:10;;;;;;;3.6;2;;;;;;;29.76;36.86133;945.0787;;;;
2022/07/17 11:07:29;;;;;;;4.1;1.8;;;;;;;29.99;35.18555;945.0427;;;;
2022/07/17 11:09:58;;;;;;;4.2;1.8;;;;;;;29.38;38.27148;944.9958;;;;
2022/07/17 11:12:23;;;;;;;2.1;1.8;;;;;;;29.48;35.74121;944.9536;;;;
2022/07/17 11:14:49;;;;;;;3.8;2.1;;;;;;;28.97;39.59375;945.0438;;;;
2022/07/17 11:17:14;;;;;;;3.7;2.1;;;;;;;29.05;37.56445;944.9686;;;;
2022/07/17 11:19:43;;;;;;;2.6;2.1;;;;;;;28.91;39.0166;944.9617;;;;
2022/07/17 11:22:09;;;;;;;3.1;1.8;;;;;;;28.77;40.46875;944.9133;;;;
2022/07/17 11:24:33;;;;;;;3.3;2;;;;;;;28.52;40.14844;944.8501;;;;
2022/07/17 11:27:00;;;;;;;2.7;2;;;;;;;28.12;41.65723;944.8067;;;;
2022/07/17 11:29:25;;;;;;;3.4;2;;;;;;;27.67;42.76758;944.8405;;;;
2022/07/17 11:31:50;;;;;;;2.4;1.9;;;;;;;28.09;39.18359;944.7925;;;;
2022/07/17 11:34:15;;;;;;;2.8;2;;;;;;;28.38;38.90039;944.769;;;;
2022/07/17 11:36:43;;;;;;;2.9;1.8;;;;;;;28.58;39.52441;944.793;;;;
2022/07/17 11:39:10;;;;;;;3.1;2.1;;;;;;;28.69;37.66602;944.7961;;;;
2022/07/17 11:41:33;;;;;;;2.5;1.8;;;;;;;28.71;38.41699;944.7917;;;;
2022/07/17 11:43:58;;;;;;;2.5;2;;;;;;;28.7;40.73535;944.7555;;;;
2022/07/17 11:46:25;;;;;;;3.6;1.8;;;;;;;28.89;38.48047;944.7623;;;;
2022/07/17 11:48:52;;;;;;;3.4;2.2;;;;;;;28.76;38.44434;944.7335;;;;
2022/07/17 11:51:18;;;;;;;7;2.4;;;;;;;28.3;40.16406;944.7806;;;;
2022/07/17 11:53:43;;;;;;;1.7;1.6;;;;;;;28.19;39.69141;944.6967;;;;
2022/07/17 11:56:09;;;;;;;2.9;2.4;;;;;;;27.78;41.50781;944.6808;;;;
2022/07/17 11:58:33;;;;;;;2.5;1.7;;;;;;;27.63;39.72461;944.5902;;;;
2022/07/17 12:01:00;;;;;;;2.8;2.1;;;;;;;27.63;41.15039;944.663;;;;
2022/07/17 12:03:26;;;;;;;2.1;1.7;;;;;;;27.98;40.6709;944.6175;;;;
2022/07/17 12:05:51;;;;;;;2.5;1.9;;;;;;;27.94;40.31055;944.6555;;;;
2022/07/17 12:08:18;;;;;;;2.3;1.7;;;;;;;28.15;38.28613;944.6414;;;;
2022/07/17 12:10:47;;;;;;;2.3;1.8;;;;;;;28.01;38.48828;944.6436;;;;
2022/07/17 12:13:09;;;;;;;2.2;1.8;;;;;;;28.24;40.06445;944.7231;;;;
2022/07/17 12:15:34;;;;;;;3.3;1.8;;;;;;;28.52;37.9834;944.6642;;;;
2022/07/17 12:17:59;;;;;;;2.9;1.9;;;;;;;28.51;39.42285;944.6415;;;;
2022/07/17 12:20:27;;;;;;;2;1.6;;;;;;;28.61;37.86133;944.6884;;;;
2022/07/17 12:22:53;;;;;;;4;1.8;;;;;;;28.57;38.58398;944.6122;;;;
2022/07/17 12:25:19;;;;;;;1.8;1.7;;;;;;;28.56;40.75977;944.5956;;;;
2022/07/17 12:27:45;;;;;;;2.5;1.8;;;;;;;27.56;41.38086;944.5388;;;;
2022/07/17 12:30:10;;;;;;;2.4;1.8;;;;;;;27.58;39.13965;944.5558;;;;
2022/07/17 12:32:37;;;;;;;2.7;2;;;;;;;27.93;38.88477;944.4494;;;;
2022/07/17 12:35:02;;;;;;;1.7;1.5;;;;;;;28.01;39.69922;944.4087;;;;
2022/07/17 12:37:30;;;;;;;2.5;1.8;;;;;;;28.01;39.65137;944.4244;;;;
2022/07/17 12:39:58;;;;;;;4.5;2;;;;;;;27.92;42.55371;944.3911;;;;
2022/07/17 12:42:23;;;;;;;3.3;2.2;;;;;;;27.87;40.26855;944.3606;;;;
2022/07/17 12:44:50;;;;;;;4.4;2;;;;;;;28.07;39.01563;944.3798;;;;
2022/07/17 12:47:15;;;;;;;4.1;2.1;;;;;;;28.28;38.61816;944.3348;;;;
2022/07/17 12:49:43;;;;;;;2.9;1.9;;;;;;;28.21;38.74219;944.3683;;;;
2022/07/17 12:52:08;;;;;;;2.2;1.9;;;;;;;28.17;38.47852;944.2978;;;;
2022/07/17 12:54:34;;;;;;;3;2;;;;;;;28.34;38.48047;944.2762;;;;
2022/07/17 12:56:59;;;;;;;3;1.7;;;;;;;28.4;39.36426;944.2784;;;;
2022/07/17 12:59:36;;;;;;;3.2;1.9;;;;;;;28.25;38.8877;944.2618;;;;
2022/07/17 13:02:00;;;;;;;2.4;1.8;;;;;;;28;38.77148;944.3161;;;;
2022/07/17 13:04:25;;;;;;;3;2;;;;;;;28;39.30664;944.3214;;;;
2022/07/17 13:06:53;;;;;;;2.1;1.8;;;;;;;28.11;41.51367;944.3256;;;;
2022/07/17 13:09:18;;;;;;;3.7;1.7;;;;;;;28.34;38.6582;944.3444;;;;
2022/07/17 13:11:48;;;;;;;2.7;1.8;;;;;;;28.39;37.36719;944.3153;;;;
2022/07/17 13:14:13;;;;;;;3.2;1.8;;;;;;;28.47;37.75391;944.3085;;;;
2022/07/17 13:16:38;;;;;;;2.5;1.9;;;;;;;28.59;36.8252;944.3145;;;;
2022/07/17 13:19:05;;;;;;;4.7;1.9;;;;;;;28.53;37.88965;944.2736;;;;
2022/07/17 13:21:30;;;;;;;2.9;1.7;;;;;;;28.51;39.36328;944.2729;;;;
2022/07/17 13:23:57;;;;;;;4.3;2;;;;;;;28.63;39.56348;944.3176;;;;
2022/07/17 13:26:22;;;;;;;6.9;3.6;;;;;;;28.65;37.42383;944.2748;;;;
2022/07/17 13:28:49;;;;;;;4.2;3.2;;;;;;;28.65;38.31641;944.2946;;;;
2022/07/17 13:31:14;;;;;;;2.8;2;;;;;;;28.29;38.99902;944.2477;;;;
2022/07/17 13:33:41;;;;;;;4.8;2.4;;;;;;;28.13;39.75684;944.283;;;;
2022/07/17 13:36:06;;;;;;;3.7;2.2;;;;;;;28.08;40.97656;944.2495;;;;
2022/07/17 13:38:32;;;;;;;2.8;2;;;;;;;28;41.04102;944.2045;;;;
2022/07/17 13:40:57;;;;;;;3.8;2;;;;;;;27.75;40.0918;944.2605;;;;
2022/07/17 13:43:22;;;;;;;3.4;2.3;;;;;;;27.85;38.67578;944.2869;;;;
2022/07/17 13:45:47;;;;;;;7.6;2.4;;;;;;;27.92;38.78809;944.2545;;;;
2022/07/17 13:48:19;;;;;;;3.3;2.2;;;;;;;28.03;39.21387;944.2344;;;;
2022/07/17 13:50:47;;;;;;;4.2;1.8;;;;;;;27.9;39.96289;944.2735;;;;
2022/07/17 13:53:13;;;;;;;1.9;1.6;;;;;;;27.91;40.62891;944.2796;;;;
2022/07/17 13:55:38;;;;;;;3.5;1.7;;;;;;;27.99;38.58203;944.317;;;;
2022/07/17 13:58:08;;;;;;;2.8;1.9;;;;;;;28.02;38.78516;944.3125;;;;
2022/07/17 14:00:32;;;;;;;2.8;1.9;;;;;;;27.95;38.49414;944.2858;;;;
2022/07/17 14:03:00;;;;;;;2.9;1.9;;;;;;;27.73;40.30469;944.285;;;;
2022/07/17 14:05:30;;;;;;;2.9;2.2;;;;;;;27.88;39.10645;944.3555;;;;
2022/07/17 14:08:00;;;;;;;4.4;2;;;;;;;27.96;38.02051;944.3522;;;;
2022/07/17 14:10:25;;;;;;;2.3;2;;;;;;;27.88;37.63379;944.3222;;;;
2022/07/17 14:12:52;;;;;;;2.3;1.8;;;;;;;28.02;37.65723;944.2592;;;;
2022/07/17 14:15:16;;;;;;;1.8;1.7;;;;;;;27.97;38.68555;944.3356;;;;
2022/07/17 14:17:47;;;;;;;2.7;1.9;;;;;;;27.77;41.32813;944.2836;;;;
2022/07/17 14:20:12;;;;;;;4.2;2;;;;;;;27.77;40.62793;944.2604;;;;
2022/07/17 14:22:39;;;;;;;2;1.8;;;;;;;27.77;39.83301;944.303;;;;
2022/07/17 14:25:04;;;;;;;2.9;2;;;;;;;27.74;38.82129;944.3182;;;;
2022/07/17 14:27:30;;;;;;;2.2;2;;;;;;;27.7;39.33984;944.2933;;;;
2022/07/17 14:29:55;;;;;;;1.9;1.7;;;;;;;27.57;40.5625;944.3412;;;;